Time;durP1;ratioP1;P1;durP2;ratioP2;P2;SDS_P1;SDS_P2;PMS_P1;PMS_P2;Temp;Humidity;BMP_temperature;BMP_pressure;BME280_temperature;BME280_humidity;BME280_pressure;Samples;Min_cycle;Max_cycle;Signal;HPM_P1;HPM_P2
2023/11/10 00:00:10;;;;;;;39.23;21.67;;;;;;;;;;4310665;32;318131;-85
2023/11/10 00:02:37;;;;;;;40.60;21.03;;;;;;;;;;4322120;32;317684;-85
2023/11/10 00:05:07;;;;;;;36.23;20.17;;;;;;;;;;4306306;33;318395;-85
2023/11/10 00:07:34;;;;;;;33.00;18.70;;;;;;;;;;4315927;33;318754;-85
2023/11/10 00:10:01;;;;;;;28.33;17.63;;;;;;;;;;4300404;33;318672;-86
2023/11/10 00:12:28;;;;;;;27.53;16.83;;;;;;;;;;4315696;33;317669;-86
2023/11/10 00:14:57;;;;;;;23.80;13.77;;;;;;;;;;4315988;33;318334;-85
2023/11/10 00:17:24;;;;;;;21.07;12.77;;;;;;;;;;4331815;33;317951;-86
2023/11/10 00:19:51;;;;;;;27.07;13.93;;;;;;;;;;4316541;33;318970;-85
2023/11/10 00:22:19;;;;;;;19.30;12.47;;;;;;;;;;4330292;33;319004;-85
2023/11/10 00:24:46;;;;;;;20.60;12.70;;;;;;;;;;4321822;33;319403;-85
2023/11/10 00:27:13;;;;;;;24.80;13.37;;;;;;;;;;4329117;33;318454;-83
2023/11/10 00:29:41;;;;;;;25.27;14.53;;;;;;;;;;4316505;33;318781;-85
2023/11/10 00:32:08;;;;;;;21.87;13.60;;;;;;;;;;4315617;33;318026;-85
2023/11/10 00:34:35;;;;;;;28.07;15.20;;;;;;;;;;4330435;33;318333;-86
2023/11/10 00:37:02;;;;;;;24.80;14.93;;;;;;;;;;4320541;33;318890;-85
2023/11/10 00:39:30;;;;;;;26.60;15.17;;;;;;;;;;4330613;33;318659;-85
2023/11/10 00:41:58;;;;;;;24.03;15.77;;;;;;;;;;4314096;32;318536;-86
2023/11/10 00:44:25;;;;;;;25.83;14.73;;;;;;;;;;4331624;32;319067;-83
2023/11/10 00:46:51;;;;;;;25.60;13.30;;;;;;;;;;4320837;32;318429;-86
2023/11/10 00:49:18;;;;;;;25.93;13.77;;;;;;;;;;4317338;33;318535;-84
2023/11/10 00:51:45;;;;;;;26.53;14.43;;;;;;;;;;4318465;32;332805;-85
2023/11/10 00:54:12;;;;;;;35.10;16.70;;;;;;;;;;4324433;32;318659;-85
2023/11/10 00:56:41;;;;;;;25.80;15.10;;;;;;;;;;4334666;32;318341;-83
2023/11/10 00:59:07;;;;;;;26.90;14.47;;;;;;;;;;4312419;33;318274;-82
2023/11/10 01:01:35;;;;;;;23.77;13.63;;;;;;;;;;4334146;32;318554;-82
2023/11/10 01:04:03;;;;;;;19.00;13.17;;;;;;;;;;4322258;32;338103;-86
2023/11/10 01:06:29;;;;;;;24.57;14.30;;;;;;;;;;4339543;32;317772;-86
2023/11/10 01:08:57;;;;;;;32.90;16.07;;;;;;;;;;4320556;32;318347;-86
2023/11/10 01:11:24;;;;;;;42.03;21.80;;;;;;;;;;4331488;32;318193;-87
2023/11/10 01:13:52;;;;;;;51.20;27.10;;;;;;;;;;4314339;32;318146;-88
2023/11/10 01:16:19;;;;;;;55.80;29.47;;;;;;;;;;4330212;32;318222;-86
2023/11/10 01:18:46;;;;;;;54.30;30.23;;;;;;;;;;4319515;32;331930;-88
2023/11/10 01:21:14;;;;;;;48.83;26.00;;;;;;;;;;4332168;32;317902;-86
2023/11/10 01:23:41;;;;;;;44.47;25.60;;;;;;;;;;4334583;32;317945;-86
2023/11/10 01:26:07;;;;;;;38.80;23.40;;;;;;;;;;4317404;32;319014;-86
2023/11/10 01:28:34;;;;;;;40.03;23.07;;;;;;;;;;4332685;32;317581;-85
2023/11/10 01:31:03;;;;;;;40.93;21.80;;;;;;;;;;4321284;32;345485;-87
2023/11/10 01:33:29;;;;;;;42.07;23.37;;;;;;;;;;4333724;32;318109;-86
2023/11/10 01:35:56;;;;;;;38.70;22.83;;;;;;;;;;4314003;32;318054;-85
2023/11/10 01:38:23;;;;;;;41.87;23.87;;;;;;;;;;4332512;32;318632;-84
2023/11/10 01:40:50;;;;;;;40.70;23.40;;;;;;;;;;4323343;32;318391;-83
2023/11/10 01:43:17;;;;;;;45.00;23.60;;;;;;;;;;4333707;32;318498;-86
2023/11/10 01:45:44;;;;;;;41.67;24.67;;;;;;;;;;4332937;32;318007;-85
2023/11/10 01:48:13;;;;;;;35.67;23.33;;;;;;;;;;4312759;32;419231;-86
2023/11/10 01:50:42;;;;;;;41.73;23.47;;;;;;;;;;4333096;32;318940;-87
2023/11/10 01:53:10;;;;;;;36.87;20.93;;;;;;;;;;4319069;32;378134;-86
2023/11/10 01:55:38;;;;;;;38.33;22.23;;;;;;;;;;4333640;32;318537;-84
2023/11/10 01:58:05;;;;;;;42.00;21.13;;;;;;;;;;4316047;32;318211;-86
2023/11/10 02:00:33;;;;;;;34.43;20.17;;;;;;;;;;4332159;32;318593;-86
2023/11/10 02:03:01;;;;;;;30.63;20.57;;;;;;;;;;4323315;32;318817;-83
2023/11/10 02:05:31;;;;;;;41.90;23.77;;;;;;;;;;4332395;32;318032;-86
2023/11/10 02:07:58;;;;;;;43.37;24.43;;;;;;;;;;4302757;32;318695;-86
2023/11/10 02:10:25;;;;;;;42.00;22.63;;;;;;;;;;4332595;32;317842;-86
2023/11/10 02:12:53;;;;;;;32.50;20.43;;;;;;;;;;4322651;32;317974;-87
2023/11/10 02:15:20;;;;;;;25.90;15.93;;;;;;;;;;4333222;32;318902;-85
2023/11/10 02:17:47;;;;;;;28.53;15.83;;;;;;;;;;4327210;32;318668;-85
2023/11/10 02:20:14;;;;;;;24.30;14.93;;;;;;;;;;4330518;32;318529;-86
2023/11/10 02:22:44;;;;;;;31.03;17.20;;;;;;;;;;4337753;32;317847;-85
2023/11/10 02:25:15;;;;;;;26.40;17.73;;;;;;;;;;4324515;32;418888;-86
2023/11/10 02:27:42;;;;;;;36.43;20.60;;;;;;;;;;4336215;32;318483;-85
2023/11/10 02:30:10;;;;;;;34.53;19.80;;;;;;;;;;4321808;32;318763;-85
2023/11/10 02:32:37;;;;;;;31.83;20.43;;;;;;;;;;4337567;32;318215;-85
2023/11/10 02:35:04;;;;;;;28.50;18.00;;;;;;;;;;4327646;32;318244;-86
2023/11/10 02:37:31;;;;;;;33.53;17.43;;;;;;;;;;4335040;32;317942;-87
2023/11/10 02:39:58;;;;;;;24.00;16.23;;;;;;;;;;4320779;32;317782;-87
2023/11/10 02:42:26;;;;;;;30.53;18.63;;;;;;;;;;4337380;32;317816;-83
2023/11/10 02:44:53;;;;;;;30.43;18.20;;;;;;;;;;4324763;32;318564;-84
2023/11/10 02:47:19;;;;;;;40.40;20.83;;;;;;;;;;4334180;32;318322;-83
2023/11/10 02:49:46;;;;;;;28.40;19.80;;;;;;;;;;4322729;32;318565;-83
2023/11/10 02:52:13;;;;;;;33.77;21.17;;;;;;;;;;4327586;32;317999;-85
2023/11/10 02:54:40;;;;;;;31.27;19.23;;;;;;;;;;4331982;32;318722;-83
2023/11/10 02:57:08;;;;;;;27.17;17.90;;;;;;;;;;4321463;32;318633;-82
2023/11/10 02:59:38;;;;;;;30.07;18.47;;;;;;;;;;4333001;32;318582;-83
2023/11/10 03:02:05;;;;;;;29.70;17.87;;;;;;;;;;4314032;32;318453;-83
2023/11/10 03:04:31;;;;;;;32.23;18.20;;;;;;;;;;4331727;32;318571;-82
2023/11/10 03:06:58;;;;;;;28.50;17.13;;;;;;;;;;4321644;32;318335;-84
2023/11/10 03:09:25;;;;;;;29.60;17.13;;;;;;;;;;4332167;32;317669;-83
2023/11/10 03:11:53;;;;;;;52.53;27.23;;;;;;;;;;4313476;32;319111;-83
2023/11/10 03:14:22;;;;;;;38.40;22.03;;;;;;;;;;4330577;32;318284;-84
2023/11/10 03:16:51;;;;;;;35.77;21.03;;;;;;;;;;4319634;32;356498;-83
2023/11/10 03:19:17;;;;;;;32.83;18.53;;;;;;;;;;4332709;32;317559;-84
2023/11/10 03:21:44;;;;;;;30.33;18.73;;;;;;;;;;4321921;32;318580;-87
2023/11/10 03:24:11;;;;;;;32.07;18.90;;;;;;;;;;4314948;32;317780;-84
2023/11/10 03:26:38;;;;;;;43.97;20.03;;;;;;;;;;4322051;32;318223;-83
2023/11/10 03:29:06;;;;;;;40.30;18.90;;;;;;;;;;4331307;32;317436;-83
2023/11/10 03:31:33;;;;;;;36.17;17.43;;;;;;;;;;4332542;32;317875;-83
2023/11/10 03:34:01;;;;;;;30.70;18.20;;;;;;;;;;4314082;32;318529;-83
2023/11/10 03:36:29;;;;;;;34.17;18.37;;;;;;;;;;4331633;32;319169;-86
2023/11/10 03:38:55;;;;;;;32.30;19.57;;;;;;;;;;4319576;32;333377;-84
2023/11/10 03:41:22;;;;;;;30.97;18.13;;;;;;;;;;4331123;32;317922;-87
2023/11/10 03:43:49;;;;;;;35.40;19.43;;;;;;;;;;4314001;32;318570;-86
2023/11/10 03:46:16;;;;;;;37.87;19.60;;;;;;;;;;4330614;32;317838;-84
2023/11/10 03:48:43;;;;;;;35.83;20.00;;;;;;;;;;4307381;32;317758;-85
2023/11/10 03:51:12;;;;;;;36.10;17.60;;;;;;;;;;4330920;32;318319;-86
2023/11/10 03:53:41;;;;;;;37.90;18.23;;;;;;;;;;4320334;32;318294;-83
2023/11/10 03:56:08;;;;;;;33.50;18.13;;;;;;;;;;4304442;32;318168;-85
2023/11/10 03:58:35;;;;;;;29.63;18.10;;;;;;;;;;4331907;32;318002;-82
2023/11/10 04:01:07;;;;;;;31.97;17.93;;;;;;;;;;4319091;32;415054;-83
2023/11/10 04:03:34;;;;;;;33.87;16.40;;;;;;;;;;4329826;32;318164;-83
2023/11/10 04:06:01;;;;;;;26.30;15.70;;;;;;;;;;4310837;32;318274;-83
2023/11/10 04:08:29;;;;;;;29.77;16.83;;;;;;;;;;4330221;32;317593;-83
2023/11/10 04:10:56;;;;;;;26.57;16.17;;;;;;;;;;4320077;33;317610;-87
2023/11/10 04:13:23;;;;;;;25.30;16.03;;;;;;;;;;4325502;32;318148;-82
2023/11/10 04:15:50;;;;;;;32.50;17.53;;;;;;;;;;4312473;32;345339;-83
2023/11/10 04:18:17;;;;;;;34.27;17.57;;;;;;;;;;4331180;32;318430;-85
2023/11/10 04:20:45;;;;;;;34.83;17.30;;;;;;;;;;4319782;33;318094;-86
2023/11/10 04:23:14;;;;;;;23.70;15.53;;;;;;;;;;4331302;33;318180;-85
2023/11/10 04:25:43;;;;;;;26.73;16.63;;;;;;;;;;4316965;33;318592;-85
2023/11/10 04:28:11;;;;;;;25.97;16.37;;;;;;;;;;4328782;32;317456;-86
2023/11/10 04:30:38;;;;;;;28.80;18.40;;;;;;;;;;4318814;32;318359;-85
2023/11/10 04:33:05;;;;;;;33.57;20.00;;;;;;;;;;4330177;32;318215;-84
2023/11/10 04:35:32;;;;;;;53.10;30.47;;;;;;;;;;4328074;32;318209;-86
2023/11/10 04:38:00;;;;;;;51.97;32.07;;;;;;;;;;4311553;32;337856;-85
2023/11/10 04:40:27;;;;;;;66.33;35.43;;;;;;;;;;4330576;32;318513;-85
2023/11/10 04:42:57;;;;;;;68.53;37.40;;;;;;;;;;4321387;33;318356;-87
2023/11/10 04:45:26;;;;;;;62.63;33.10;;;;;;;;;;4329726;33;318221;-84
2023/11/10 04:47:54;;;;;;;59.00;35.57;;;;;;;;;;4313335;33;318622;-84
2023/11/10 04:50:20;;;;;;;65.87;34.10;;;;;;;;;;4331253;33;317699;-85
2023/11/10 04:52:48;;;;;;;59.30;34.53;;;;;;;;;;4325265;32;318773;-86
2023/11/10 04:55:15;;;;;;;56.80;33.17;;;;;;;;;;4345566;32;318114;-86
2023/11/10 04:57:41;;;;;;;53.07;34.53;;;;;;;;;;4334425;32;317543;-87
2023/11/10 05:00:13;;;;;;;49.30;32.17;;;;;;;;;;4342425;32;318103;-85
2023/11/10 05:02:44;;;;;;;44.73;28.50;;;;;;;;;;4326701;32;335612;-85
2023/11/10 05:05:12;;;;;;;45.63;25.93;;;;;;;;;;4334205;32;318438;-85
2023/11/10 05:07:40;;;;;;;33.67;22.53;;;;;;;;;;4323148;32;317513;-86
2023/11/10 05:10:07;;;;;;;35.43;20.93;;;;;;;;;;4325747;32;318465;-85
2023/11/10 05:12:34;;;;;;;34.23;21.60;;;;;;;;;;4331397;32;318345;-85
2023/11/10 05:15:05;;;;;;;31.13;19.67;;;;;;;;;;4322394;32;318281;-87
2023/11/10 05:17:34;;;;;;;29.17;18.97;;;;;;;;;;4331910;32;318663;-87
2023/11/10 05:20:02;;;;;;;36.83;21.80;;;;;;;;;;4313994;32;318605;-87
2023/11/10 05:22:29;;;;;;;45.47;24.00;;;;;;;;;;4330753;32;317757;-87
2023/11/10 05:24:57;;;;;;;41.50;24.10;;;;;;;;;;4320681;32;317767;-87
2023/11/10 05:27:24;;;;;;;50.00;28.37;;;;;;;;;;4331570;32;318419;-87
2023/11/10 05:29:51;;;;;;;62.13;35.20;;;;;;;;;;4313874;32;318166;-89
2023/11/10 05:32:18;;;;;;;55.37;34.40;;;;;;;;;;4329106;32;318487;-86
2023/11/10 05:34:48;;;;;;;60.33;35.33;;;;;;;;;;4318420;32;324414;-88
2023/11/10 05:37:15;;;;;;;58.47;34.83;;;;;;;;;;4330574;32;318377;-88
2023/11/10 05:39:42;;;;;;;61.17;33.60;;;;;;;;;;4323086;32;317838;-82
2023/11/10 05:42:08;;;;;;;60.73;33.20;;;;;;;;;;4328687;32;318550;-86
2023/11/10 05:44:38;;;;;;;62.77;32.33;;;;;;;;;;4326008;32;318095;-87
2023/11/10 05:47:05;;;;;;;61.53;31.97;;;;;;;;;;4314562;32;419060;-85
2023/11/10 05:49:33;;;;;;;59.20;32.07;;;;;;;;;;4328262;32;318184;-86
2023/11/10 05:52:01;;;;;;;66.97;41.20;;;;;;;;;;4315376;32;318496;-86
2023/11/10 05:54:29;;;;;;;69.63;36.13;;;;;;;;;;4331279;32;318249;-85
2023/11/10 05:56:57;;;;;;;65.63;34.90;;;;;;;;;;4318709;32;318147;-87
2023/11/10 05:59:27;;;;;;;101.50;53.33;;;;;;;;;;4334649;32;317589;-89
2023/11/10 06:01:56;;;;;;;76.00;38.20;;;;;;;;;;4312251;32;319569;-85
2023/11/10 06:04:24;;;;;;;60.80;36.10;;;;;;;;;;4329894;32;317673;-87
2023/11/10 06:06:51;;;;;;;47.07;28.97;;;;;;;;;;4321192;32;323828;-86
2023/11/10 06:09:21;;;;;;;62.73;27.67;;;;;;;;;;4330932;32;318398;-84
2023/11/10 06:11:49;;;;;;;40.27;25.27;;;;;;;;;;4312240;32;318634;-88
2023/11/10 06:14:19;;;;;;;46.50;26.90;;;;;;;;;;4334466;32;318710;-90
2023/11/10 06:16:48;;;;;;;42.77;26.80;;;;;;;;;;4310551;32;318482;-89
2023/11/10 06:19:15;;;;;;;43.83;25.43;;;;;;;;;;4333252;32;318478;-88
2023/11/10 06:21:43;;;;;;;40.17;25.10;;;;;;;;;;4323391;32;318571;-89
2023/11/10 06:24:10;;;;;;;50.33;23.27;;;;;;;;;;4326513;32;318730;-90
2023/11/10 06:26:38;;;;;;;38.10;22.43;;;;;;;;;;4332726;32;318582;-87
2023/11/10 06:29:05;;;;;;;40.13;23.47;;;;;;;;;;4319246;32;417696;-87
2023/11/10 06:31:36;;;;;;;43.97;24.10;;;;;;;;;;4333366;32;318635;-87
2023/11/10 06:34:06;;;;;;;42.73;24.97;;;;;;;;;;4304234;32;417561;-87
2023/11/10 06:36:32;;;;;;;37.43;24.33;;;;;;;;;;4335703;32;318526;-87
2023/11/10 06:39:01;;;;;;;46.87;25.77;;;;;;;;;;4323535;32;318323;-88
2023/11/10 06:41:28;;;;;;;41.60;24.13;;;;;;;;;;4334030;32;318363;-87
2023/11/10 06:43:59;;;;;;;43.47;27.50;;;;;;;;;;4318465;32;318410;-85
2023/11/10 06:46:26;;;;;;;51.60;26.27;;;;;;;;;;4333420;32;318518;-86
2023/11/10 06:48:55;;;;;;;41.50;24.30;;;;;;;;;;4319688;32;318614;-88
2023/11/10 06:51:22;;;;;;;37.67;24.87;;;;;;;;;;4331058;32;317729;-86
2023/11/10 06:53:49;;;;;;;44.90;26.37;;;;;;;;;;4315733;32;318828;-86
2023/11/10 06:56:17;;;;;;;42.17;27.60;;;;;;;;;;4331279;32;317679;-87
2023/11/10 06:58:44;;;;;;;45.93;27.70;;;;;;;;;;4320268;32;342018;-85
2023/11/10 07:01:12;;;;;;;37.87;26.63;;;;;;;;;;4311655;32;318505;-86
2023/11/10 07:03:39;;;;;;;44.27;25.80;;;;;;;;;;4321187;32;318512;-87
2023/11/10 07:06:07;;;;;;;47.87;30.23;;;;;;;;;;4325044;32;338689;-85
2023/11/10 07:08:34;;;;;;;47.27;29.27;;;;;;;;;;4331979;32;317460;-85
2023/11/10 07:11:02;;;;;;;48.80;30.00;;;;;;;;;;4320151;32;318356;-87
2023/11/10 07:13:29;;;;;;;53.73;35.80;;;;;;;;;;4330546;32;318377;-85
2023/11/10 07:15:57;;;;;;;59.07;34.57;;;;;;;;;;4314473;32;318325;-87
2023/11/10 07:18:26;;;;;;;48.63;32.13;;;;;;;;;;4330756;32;318276;-87
2023/11/10 07:20:54;;;;;;;56.90;31.97;;;;;;;;;;4321119;32;317732;-84
2023/11/10 07:23:21;;;;;;;53.63;30.30;;;;;;;;;;4331715;32;317904;-84
2023/11/10 07:25:47;;;;;;;55.73;33.37;;;;;;;;;;4320304;32;318548;-89
2023/11/10 07:28:14;;;;;;;64.30;34.40;;;;;;;;;;4327454;32;317964;-83
2023/11/10 07:30:43;;;;;;;58.83;36.03;;;;;;;;;;4322360;32;317693;-85
2023/11/10 07:33:10;;;;;;;61.27;40.47;;;;;;;;;;4331634;32;350564;-84
2023/11/10 07:35:39;;;;;;;52.17;31.67;;;;;;;;;;4328236;32;318388;-85
2023/11/10 07:38:06;;;;;;;53.03;26.63;;;;;;;;;;4324840;32;317845;-83
2023/11/10 07:40:33;;;;;;;45.60;25.87;;;;;;;;;;4332248;32;332377;-84
2023/11/10 07:43:00;;;;;;;36.00;23.67;;;;;;;;;;4321715;32;318242;-83
2023/11/10 07:45:28;;;;;;;38.53;24.03;;;;;;;;;;4332547;32;342596;-86
2023/11/10 07:47:55;;;;;;;45.23;24.83;;;;;;;;;;4319967;32;318321;-85
2023/11/10 07:50:24;;;;;;;40.33;24.80;;;;;;;;;;4332425;32;318493;-84
2023/11/10 07:52:52;;;;;;;37.60;24.20;;;;;;;;;;4321806;32;317889;-87
2023/11/10 07:55:20;;;;;;;42.43;24.53;;;;;;;;;;4333240;32;318812;-83
2023/11/10 07:57:48;;;;;;;46.80;26.13;;;;;;;;;;4324080;32;318335;-89
2023/11/10 08:00:18;;;;;;;55.80;36.53;;;;;;;;;;4335196;32;317576;-85
2023/11/10 08:02:46;;;;;;;86.43;47.93;;;;;;;;;;4321408;32;318471;-83
2023/11/10 08:05:13;;;;;;;57.17;39.80;;;;;;;;;;4331380;32;318379;-86
2023/11/10 08:07:40;;;;;;;63.67;40.03;;;;;;;;;;4314314;32;318690;-85
2023/11/10 08:10:09;;;;;;;63.80;39.90;;;;;;;;;;4324998;32;318369;-83
2023/11/10 08:12:37;;;;;;;75.30;50.20;;;;;;;;;;4317362;33;318349;-84
2023/11/10 08:15:06;;;;;;;86.67;47.70;;;;;;;;;;4318903;33;418456;-86
2023/11/10 08:17:33;;;;;;;71.20;45.47;;;;;;;;;;4332391;33;318418;-88
2023/11/10 08:20:00;;;;;;;66.93;43.77;;;;;;;;;;4312204;32;350121;-86
2023/11/10 08:22:27;;;;;;;54.37;34.87;;;;;;;;;;4332080;32;318353;-87
2023/11/10 08:24:54;;;;;;;49.83;32.27;;;;;;;;;;4321246;32;317759;-89
2023/11/10 08:27:23;;;;;;;53.60;32.67;;;;;;;;;;4331988;32;318049;-87
2023/11/10 08:29:50;;;;;;;43.90;27.43;;;;;;;;;;4317918;32;318391;-86
2023/11/10 08:32:17;;;;;;;46.80;29.53;;;;;;;;;;4334609;32;318338;-88
2023/11/10 08:34:44;;;;;;;49.83;28.40;;;;;;;;;;4322671;32;318368;-87
2023/11/10 08:37:11;;;;;;;42.53;27.43;;;;;;;;;;4334410;32;321819;-86
2023/11/10 08:39:38;;;;;;;44.30;24.23;;;;;;;;;;4325877;32;318305;-89
2023/11/10 08:42:05;;;;;;;54.33;29.47;;;;;;;;;;4326839;32;317964;-83
2023/11/10 08:44:33;;;;;;;57.13;34.33;;;;;;;;;;4333388;32;318182;-83
2023/11/10 08:47:00;;;;;;;62.43;38.03;;;;;;;;;;4322849;32;317706;-85
2023/11/10 08:49:27;;;;;;;61.27;34.83;;;;;;;;;;4334596;32;318443;-83
2023/11/10 08:51:54;;;;;;;43.87;25.20;;;;;;;;;;4316339;32;317994;-83
2023/11/10 08:54:21;;;;;;;38.33;24.87;;;;;;;;;;4343631;32;317350;-82
2023/11/10 08:56:48;;;;;;;39.73;24.83;;;;;;;;;;4334641;32;317499;-81
2023/11/10 08:59:15;;;;;;;39.77;28.27;;;;;;;;;;4334831;32;318576;-88
2023/11/10 09:01:44;;;;;;;43.67;23.83;;;;;;;;;;4309907;32;317618;-83
2023/11/10 09:04:11;;;;;;;36.50;24.83;;;;;;;;;;4327747;32;318269;-87
2023/11/10 09:06:39;;;;;;;43.50;27.87;;;;;;;;;;4329473;32;317690;-83
2023/11/10 09:09:08;;;;;;;49.97;27.67;;;;;;;;;;4342440;32;318038;-86
2023/11/10 09:11:35;;;;;;;49.27;28.33;;;;;;;;;;4344742;32;316829;-84
2023/11/10 09:14:03;;;;;;;45.73;27.63;;;;;;;;;;4315357;32;415077;-84
2023/11/10 09:16:31;;;;;;;46.13;29.03;;;;;;;;;;4336757;32;318165;-84
2023/11/10 09:19:00;;;;;;;48.10;30.53;;;;;;;;;;4317695;32;318287;-85
2023/11/10 09:21:26;;;;;;;49.60;29.83;;;;;;;;;;4335390;32;318484;-84
2023/11/10 09:23:54;;;;;;;59.10;31.47;;;;;;;;;;4318487;32;318460;-86
2023/11/10 09:26:21;;;;;;;52.27;32.87;;;;;;;;;;4333355;32;318634;-85
2023/11/10 09:28:49;;;;;;;49.30;33.03;;;;;;;;;;4323736;32;317575;-84
2023/11/10 09:31:17;;;;;;;61.73;35.60;;;;;;;;;;4333829;32;317579;-84
2023/11/10 09:33:44;;;;;;;58.50;33.87;;;;;;;;;;4322131;32;350655;-84
2023/11/10 09:36:12;;;;;;;66.23;35.93;;;;;;;;;;4328086;32;356241;-83
2023/11/10 09:38:39;;;;;;;65.00;36.10;;;;;;;;;;4322289;32;318133;-85
2023/11/10 09:44:14;;;;;;;57.90;35.73;;;;;;;;;;4320275;32;317763;-85
2023/11/10 09:46:43;;;;;;;70.53;38.07;;;;;;;;;;4326114;32;323616;-89
2023/11/10 09:49:12;;;;;;;68.23;38.67;;;;;;;;;;4348404;32;318083;-90
2023/11/10 09:51:42;;;;;;;54.37;36.70;;;;;;;;;;4346456;32;316668;-85
2023/11/10 09:54:09;;;;;;;61.57;35.47;;;;;;;;;;4319845;32;417943;-84
2023/11/10 09:56:38;;;;;;;51.97;35.10;;;;;;;;;;4332856;32;318508;-84
2023/11/10 09:59:12;;;;;;;65.17;36.87;;;;;;;;;;4327414;32;418484;-84
2023/11/10 10:01:39;;;;;;;70.57;37.03;;;;;;;;;;4319444;32;317338;-88
2023/11/10 10:04:09;;;;;;;62.40;36.80;;;;;;;;;;4334596;32;318090;-86
2023/11/10 10:06:37;;;;;;;64.90;36.30;;;;;;;;;;4336760;32;317528;-88
2023/11/10 10:09:05;;;;;;;54.60;34.73;;;;;;;;;;4320892;32;417753;-85
2023/11/10 10:11:33;;;;;;;56.73;36.63;;;;;;;;;;4331188;32;318203;-86
2023/11/10 10:14:01;;;;;;;59.60;34.63;;;;;;;;;;4313620;32;318466;-84
2023/11/10 10:16:28;;;;;;;63.03;36.37;;;;;;;;;;4332514;32;318397;-84
2023/11/10 10:18:56;;;;;;;60.67;37.13;;;;;;;;;;4322912;32;318374;-89
2023/11/10 10:21:23;;;;;;;51.90;34.10;;;;;;;;;;4331442;32;318252;-85
2023/11/10 10:23:50;;;;;;;50.10;32.60;;;;;;;;;;4313707;32;348051;-84
2023/11/10 10:26:20;;;;;;;48.47;30.67;;;;;;;;;;4330993;32;318333;-86
2023/11/10 10:28:47;;;;;;;40.97;26.40;;;;;;;;;;4321888;32;348940;-86
2023/11/10 10:31:14;;;;;;;35.73;21.27;;;;;;;;;;4332427;32;318037;-84
2023/11/10 10:33:42;;;;;;;41.83;25.37;;;;;;;;;;4320949;32;318420;-86
2023/11/10 10:36:09;;;;;;;38.67;24.13;;;;;;;;;;4326222;32;317623;-84
2023/11/10 10:38:39;;;;;;;49.27;29.70;;;;;;;;;;4330048;32;318641;-85
2023/11/10 10:41:14;;;;;;;37.87;27.90;;;;;;;;;;4320565;32;419252;-87
2023/11/10 10:43:42;;;;;;;44.43;26.93;;;;;;;;;;4317103;32;318234;-90
2023/11/10 10:46:10;;;;;;;33.30;22.30;;;;;;;;;;4328699;32;318334;-89
2023/11/10 10:48:39;;;;;;;42.73;25.13;;;;;;;;;;4330440;32;318154;-88
2023/11/10 10:51:08;;;;;;;36.53;22.30;;;;;;;;;;4331744;32;319701;-89
2023/11/10 10:53:39;;;;;;;33.80;21.17;;;;;;;;;;4331464;32;318589;-88
2023/11/10 10:56:07;;;;;;;34.77;20.47;;;;;;;;;;4311321;32;418439;-86
2023/11/10 10:58:38;;;;;;;34.13;20.37;;;;;;;;;;4330446;32;319594;-89
2023/11/10 11:01:08;;;;;;;25.60;17.60;;;;;;;;;;4318952;32;420351;-88
2023/11/10 11:03:58;;;;;;;29.30;18.67;;;;;;;;;;4310574;32;319322;-86
2023/11/10 11:06:37;;;;;;;25.33;17.93;;;;;;;;;;4317749;32;418348;-87
2023/11/10 11:09:20;;;;;;;28.17;18.53;;;;;;;;;;4318118;32;420315;-88
2023/11/10 11:12:17;;;;;;;33.23;17.63;;;;;;;;;;4317064;32;318892;-88
2023/11/10 11:14:55;;;;;;;30.47;18.97;;;;;;;;;;4318673;32;318607;-89
2023/11/10 11:17:55;;;;;;;33.83;19.80;;;;;;;;;;4330690;32;319914;-87
2023/11/10 11:20:23;;;;;;;23.03;16.27;;;;;;;;;;4287906;32;419634;-87
2023/11/10 11:22:50;;;;;;;27.53;17.57;;;;;;;;;;4320684;32;319479;-87
2023/11/10 11:25:23;;;;;;;28.13;16.40;;;;;;;;;;4332484;32;319373;-85
2023/11/10 11:27:58;;;;;;;25.70;13.73;;;;;;;;;;4312377;32;324648;-85
2023/11/10 11:30:34;;;;;;;18.80;12.33;;;;;;;;;;4330780;32;319198;-85
2023/11/10 11:33:06;;;;;;;24.83;14.77;;;;;;;;;;4319061;32;318913;-86
2023/11/10 11:35:42;;;;;;;28.73;17.43;;;;;;;;;;4320645;32;318644;-86
2023/11/10 11:38:09;;;;;;;25.40;16.40;;;;;;;;;;4310693;32;419679;-85
2023/11/10 11:40:36;;;;;;;24.63;15.13;;;;;;;;;;4316192;32;318975;-85
2023/11/10 11:43:10;;;;;;;33.20;16.50;;;;;;;;;;4320003;32;319915;-85
2023/11/10 11:45:39;;;;;;;28.87;20.43;;;;;;;;;;4330995;32;319436;-85
2023/11/10 11:48:09;;;;;;;28.30;19.57;;;;;;;;;;4309697;32;418555;-85
2023/11/10 11:50:36;;;;;;;35.07;18.10;;;;;;;;;;4331780;32;319152;-87
2023/11/10 11:53:04;;;;;;;27.77;17.77;;;;;;;;;;4317670;32;419768;-86
2023/11/10 11:55:31;;;;;;;42.63;26.60;;;;;;;;;;4332768;32;319149;-84
2023/11/10 11:57:58;;;;;;;48.80;25.40;;;;;;;;;;4311861;32;357882;-86
2023/11/10 12:00:26;;;;;;;38.93;25.57;;;;;;;;;;4331696;32;319311;-86
2023/11/10 12:02:55;;;;;;;42.30;27.37;;;;;;;;;;4322340;32;318628;-85
2023/11/10 12:05:26;;;;;;;38.63;25.47;;;;;;;;;;4332032;32;319321;-85
2023/11/10 12:07:53;;;;;;;37.87;26.93;;;;;;;;;;4314125;32;319903;-88
2023/11/10 12:10:20;;;;;;;34.27;20.97;;;;;;;;;;4332193;32;319217;-82
2023/11/10 12:12:47;;;;;;;34.83;18.30;;;;;;;;;;4320816;32;319206;-85
2023/11/10 12:15:16;;;;;;;8.47;5.30;;;;;;;;;;4330713;32;318709;-85
2023/11/10 12:17:44;;;;;;;5.80;4.43;;;;;;;;;;4322612;32;317128;-83
2023/11/10 12:20:12;;;;;;;11.60;3.80;;;;;;;;;;4325910;32;332893;-85
2023/11/10 12:22:40;;;;;;;9.30;3.97;;;;;;;;;;4321744;32;318350;-85
2023/11/10 12:25:10;;;;;;;7.10;4.00;;;;;;;;;;4332035;32;317266;-84
2023/11/10 12:27:37;;;;;;;9.93;4.50;;;;;;;;;;4331778;32;317347;-85
2023/11/10 12:30:06;;;;;;;6.20;3.37;;;;;;;;;;4311599;32;418098;-84
2023/11/10 12:32:33;;;;;;;4.10;2.67;;;;;;;;;;4332459;32;317271;-85
2023/11/10 12:35:03;;;;;;;4.40;3.30;;;;;;;;;;4308200;32;317130;-89
2023/11/10 12:37:29;;;;;;;4.00;3.13;;;;;;;;;;4317418;33;316981;-84
2023/11/10 12:39:58;;;;;;;4.40;2.80;;;;;;;;;;4300351;33;316533;-86
2023/11/10 12:42:25;;;;;;;7.77;2.90;;;;;;;;;;4317689;33;316696;-85
2023/11/10 12:44:58;;;;;;;4.03;2.83;;;;;;;;;;4311144;33;317043;-85
2023/11/10 12:47:32;;;;;;;7.03;3.00;;;;;;;;;;4334273;32;317273;-85
2023/11/10 12:49:59;;;;;;;11.30;3.63;;;;;;;;;;4324482;32;316927;-86
2023/11/10 12:52:26;;;;;;;3.40;2.63;;;;;;;;;;4345720;32;317021;-87
2023/11/10 12:54:52;;;;;;;5.47;3.07;;;;;;;;;;4328896;32;316509;-85
2023/11/10 12:57:21;;;;;;;3.37;3.07;;;;;;;;;;4331160;32;317052;-90
2023/11/10 12:59:48;;;;;;;7.93;4.20;;;;;;;;;;4318691;32;317463;-90
2023/11/10 13:02:15;;;;;;;6.43;2.90;;;;;;;;;;4330130;32;317231;-90
2023/11/10 13:04:42;;;;;;;6.10;3.10;;;;;;;;;;4322146;32;316924;-88
2023/11/10 13:07:09;;;;;;;8.60;4.03;;;;;;;;;;4332333;32;317239;-85
2023/11/10 13:09:36;;;;;;;9.90;5.40;;;;;;;;;;4332534;32;317185;-87
2023/11/10 13:12:03;;;;;;;10.17;5.07;;;;;;;;;;4310930;32;417234;-86
2023/11/10 13:14:31;;;;;;;9.20;4.70;;;;;;;;;;4333852;32;318343;-86
2023/11/10 13:16:58;;;;;;;10.80;4.90;;;;;;;;;;4324076;32;317130;-87
2023/11/10 13:19:25;;;;;;;12.37;4.40;;;;;;;;;;4334090;32;317748;-88
2023/11/10 13:21:53;;;;;;;7.07;3.77;;;;;;;;;;4316401;32;318167;-90
2023/11/10 13:24:20;;;;;;;6.60;2.97;;;;;;;;;;4335035;32;316477;-87
2023/11/10 13:26:46;;;;;;;5.00;3.37;;;;;;;;;;4322409;32;317059;-87
2023/11/10 13:29:14;;;;;;;12.33;5.60;;;;;;;;;;4332356;32;344131;-85
2023/11/10 13:31:42;;;;;;;9.87;4.27;;;;;;;;;;4324244;32;318733;-89
2023/11/10 13:34:14;;;;;;;14.97;4.90;;;;;;;;;;4327446;32;317488;-87
2023/11/10 13:36:41;;;;;;;9.60;3.67;;;;;;;;;;4323359;32;318503;-88
2023/11/10 13:39:10;;;;;;;6.63;3.30;;;;;;;;;;4333501;32;316749;-86
2023/11/10 13:41:37;;;;;;;5.60;3.67;;;;;;;;;;4320747;32;316578;-87
2023/11/10 13:44:07;;;;;;;5.77;3.13;;;;;;;;;;4312908;32;418273;-89
2023/11/10 13:46:34;;;;;;;4.87;2.93;;;;;;;;;;4332475;32;317316;-85
2023/11/10 13:49:02;;;;;;;7.77;4.20;;;;;;;;;;4322169;32;317174;-87
2023/11/10 13:51:29;;;;;;;5.30;3.60;;;;;;;;;;4324674;32;316433;-87
2023/11/10 13:53:55;;;;;;;10.10;4.07;;;;;;;;;;4314473;32;338940;-85
2023/11/10 13:56:22;;;;;;;4.33;3.40;;;;;;;;;;4334535;32;317915;-85
2023/11/10 13:58:53;;;;;;;5.47;3.20;;;;;;;;;;4323512;32;317285;-86
2023/11/10 14:01:19;;;;;;;4.97;4.10;;;;;;;;;;4332209;32;317502;-87
2023/11/10 14:03:47;;;;;;;5.07;3.33;;;;;;;;;;4322100;32;321204;-89
2023/11/10 14:06:15;;;;;;;10.30;4.17;;;;;;;;;;4332454;32;317228;-84
2023/11/10 14:08:42;;;;;;;8.17;4.13;;;;;;;;;;4323627;32;317669;-87
2023/11/10 14:11:09;;;;;;;9.23;3.70;;;;;;;;;;4333717;32;317521;-85
2023/11/10 14:13:36;;;;;;;5.37;3.40;;;;;;;;;;4332879;32;316537;-85
2023/11/10 14:16:04;;;;;;;7.70;5.07;;;;;;;;;;4312706;32;416471;-85